createdAt,value
2019-01-05T00:00:33.097Z,-2.45
2019-01-05T00:01:33.101Z,-2.42
2019-01-05T00:02:33.107Z,-2.46
2019-01-05T00:03:33.111Z,-2.60
2019-01-05T00:04:33.116Z,-2.60
2019-01-05T00:05:33.119Z,-2.66
2019-01-05T00:06:33.123Z,-2.60
2019-01-05T00:07:33.128Z,-2.55
2019-01-05T00:08:33.133Z,-2.61
2019-01-05T00:09:33.138Z,-2.53
2019-01-05T00:10:33.142Z,-2.70
2019-01-05T00:11:33.146Z,-2.73
2019-01-05T00:12:33.149Z,-2.68
2019-01-05T00:13:33.155Z,-2.81
2019-01-05T00:14:33.159Z,-2.73
2019-01-05T00:15:33.161Z,-2.78
2019-01-05T00:16:33.166Z,-2.82
2019-01-05T00:17:33.173Z,-2.86
2019-01-05T00:18:33.174Z,-2.89
2019-01-05T00:19:33.180Z,-2.86
2019-01-05T00:20:33.187Z,-2.85
2019-01-05T00:21:33.189Z,-2.78
2019-01-05T00:22:33.196Z,-2.71
2019-01-05T00:23:33.198Z,-2.79
2019-01-05T00:24:33.205Z,-2.86
2019-01-05T00:25:33.207Z,-2.97
2019-01-05T00:26:33.212Z,-2.97
2019-01-05T00:27:33.214Z,-3.06
2019-01-05T00:28:33.221Z,-3.03
2019-01-05T00:29:33.227Z,-3.09
2019-01-05T00:30:33.227Z,-3.03
2019-01-05T00:31:33.233Z,-3.12
2019-01-05T00:32:33.236Z,-2.88
2019-01-05T00:33:33.246Z,-2.82
2019-01-05T00:34:33.244Z,-2.73
2019-01-05T00:35:33.252Z,-2.77
2019-01-05T00:36:33.255Z,-2.73
2019-01-05T00:37:33.259Z,-2.77
2019-01-05T00:38:33.261Z,-2.64
2019-01-05T00:39:33.266Z,-2.63
2019-01-05T00:40:33.277Z,-2.60
2019-01-05T00:41:33.274Z,-2.67
2019-01-05T00:42:33.282Z,-2.55
2019-01-05T00:43:33.285Z,-2.56
2019-01-05T00:44:33.289Z,-2.55
2019-01-05T00:45:33.291Z,-2.63
2019-01-05T00:46:33.296Z,-2.70
2019-01-05T00:47:33.299Z,-2.67
2019-01-05T00:48:33.305Z,-2.68
2019-01-05T00:49:33.317Z,-2.78
2019-01-05T00:50:33.314Z,-2.82
2019-01-05T00:51:33.320Z,-2.74
2019-01-05T00:52:33.326Z,-2.81
2019-01-05T00:53:33.324Z,-2.84
2019-01-05T00:54:33.328Z,-2.89
2019-01-05T00:55:33.333Z,-2.84
2019-01-05T00:56:33.339Z,-3.00
2019-01-05T00:57:33.341Z,-2.94
2019-01-05T00:58:33.346Z,-3.02
2019-01-05T00:59:33.353Z,-3.00
2019-01-05T01:00:33.372Z,-2.97
2019-01-05T01:01:33.358Z,-2.97
2019-01-05T01:02:33.363Z,-2.89
2019-01-05T01:03:33.368Z,-2.84
2019-01-05T01:04:33.372Z,-2.84
2019-01-05T01:05:33.380Z,-2.82
2019-01-05T01:06:33.385Z,-2.79
2019-01-05T01:07:33.389Z,-2.68
2019-01-05T01:08:33.389Z,-2.77
2019-01-05T01:09:33.395Z,-2.74
2019-01-05T01:10:33.398Z,-2.67
2019-01-05T01:11:33.402Z,-2.70
2019-01-05T01:12:33.409Z,-2.67
2019-01-05T01:13:33.411Z,-2.50
2019-01-05T01:14:33.415Z,-2.61
2019-01-05T01:15:33.417Z,-2.52
2019-01-05T01:16:33.422Z,-2.50
2019-01-05T01:17:33.428Z,-2.40
2019-01-05T01:18:33.433Z,-2.53
2019-01-05T01:19:33.437Z,-2.58
2019-01-05T01:20:33.438Z,-2.55
2019-01-05T01:21:33.446Z,-2.42
2019-01-05T01:22:33.446Z,-2.43
2019-01-05T01:23:33.453Z,-2.67
2019-01-05T01:24:33.457Z,-2.67
2019-01-05T01:25:33.460Z,-2.79
2019-01-05T01:26:33.462Z,-2.81
2019-01-05T01:27:33.470Z,-2.89
2019-01-05T01:28:33.502Z,-2.86
2019-01-05T01:29:33.487Z,-2.86
2019-01-05T01:30:33.481Z,-2.81
2019-01-05T01:31:33.483Z,-2.85
2019-01-05T01:32:33.487Z,-2.88
2019-01-05T01:33:33.491Z,-2.91
2019-01-05T01:34:33.496Z,-2.97
2019-01-05T01:35:33.503Z,-2.96
2019-01-05T01:36:33.507Z,-3.14
2019-01-05T01:37:33.508Z,-3.25
2019-01-05T01:38:33.512Z,-3.18
2019-01-05T01:39:33.516Z,-3.25
2019-01-05T01:40:33.519Z,-3.21
2019-01-05T01:41:33.530Z,-3.25
2019-01-05T01:42:33.530Z,-3.15
2019-01-05T01:43:33.537Z,-3.35
2019-01-05T01:44:33.537Z,-3.36
2019-01-05T01:45:33.540Z,-3.45
2019-01-05T01:46:33.548Z,-3.41
2019-01-05T01:47:33.552Z,-3.48
2019-01-05T01:48:33.552Z,-3.41
2019-01-05T01:49:33.556Z,-3.52
2019-01-05T01:50:33.562Z,-3.53
2019-01-05T01:51:33.565Z,-3.49
2019-01-05T01:52:33.566Z,-3.53
2019-01-05T01:53:33.571Z,-3.56
2019-01-05T01:54:33.577Z,-3.54
2019-01-05T01:55:33.582Z,-3.60
2019-01-05T01:56:33.583Z,-3.57
2019-01-05T01:57:33.585Z,-3.56
2019-01-05T01:58:33.595Z,-3.60
2019-01-05T01:59:33.593Z,-3.60
2019-01-05T02:00:33.600Z,-3.52
2019-01-05T02:01:33.602Z,-3.56
2019-01-05T02:02:33.604Z,-3.43
2019-01-05T02:03:33.610Z,-3.45
2019-01-05T02:04:33.613Z,-3.52
2019-01-05T02:05:33.618Z,-3.45
2019-01-05T02:06:33.619Z,-3.41
2019-01-05T02:07:33.624Z,-3.42
2019-01-05T02:08:33.629Z,-3.43
2019-01-05T02:09:33.630Z,-3.42
2019-01-05T02:10:33.636Z,-3.41
2019-01-05T02:11:33.640Z,-3.35
2019-01-05T02:12:33.683Z,-3.36
2019-01-05T02:13:33.653Z,-3.33
2019-01-05T02:14:33.651Z,-3.38
2019-01-05T02:15:33.657Z,-3.31
2019-01-05T02:16:33.661Z,-3.27
2019-01-05T02:17:33.663Z,-3.30
2019-01-05T02:18:33.668Z,-3.33
2019-01-05T02:19:33.669Z,-3.24
2019-01-05T02:20:33.674Z,-3.33
2019-01-05T02:21:33.683Z,-3.20
2019-01-05T02:22:33.681Z,-3.33
2019-01-05T02:23:33.686Z,-3.17
2019-01-05T02:24:33.690Z,-3.15
2019-01-05T02:25:33.692Z,-3.15
2019-01-05T02:26:33.698Z,-3.18
2019-01-05T02:27:33.700Z,-3.17
2019-01-05T02:28:33.705Z,-3.14
2019-01-05T02:29:33.707Z,-3.20
2019-01-05T02:30:33.711Z,-3.20
2019-01-05T02:31:33.728Z,-3.30
2019-01-05T02:32:33.722Z,-3.30
2019-01-05T02:33:33.725Z,-3.35
2019-01-05T02:34:33.729Z,-3.43
2019-01-05T02:35:33.732Z,-3.42
2019-01-05T02:36:33.739Z,-3.43
2019-01-05T02:37:33.740Z,-3.46
2019-01-05T02:38:33.745Z,-3.52
2019-01-05T02:39:33.748Z,-3.45
2019-01-05T02:40:33.754Z,-3.45
2019-01-05T02:41:33.758Z,-3.53
2019-01-05T02:42:33.759Z,-3.57
2019-01-05T02:43:33.766Z,-3.62
2019-01-05T02:44:33.769Z,-3.62
2019-01-05T02:45:33.787Z,-3.63
2019-01-05T02:46:33.777Z,-3.72
2019-01-05T02:47:33.778Z,-3.72
2019-01-05T02:48:33.784Z,-3.62
2019-01-05T02:49:33.794Z,-3.76
2019-01-05T02:50:33.794Z,-3.69
2019-01-05T02:51:33.798Z,-3.69
2019-01-05T02:52:33.803Z,-3.62
2019-01-05T02:53:33.801Z,-3.69
2019-01-05T02:54:33.807Z,-3.60
2019-01-05T02:55:33.811Z,-3.63
2019-01-05T02:56:33.816Z,-3.69
2019-01-05T02:57:33.817Z,-3.71
2019-01-05T02:58:33.820Z,-3.64
2019-01-05T02:59:33.835Z,-3.67
2019-01-05T03:00:33.831Z,-3.64
2019-01-05T03:01:33.835Z,-3.85
2019-01-05T03:02:33.841Z,-3.88
2019-01-05T03:03:33.840Z,-3.94
2019-01-05T03:04:33.845Z,-3.97
2019-01-05T03:05:33.846Z,-4.01
2019-01-05T03:06:33.850Z,-3.99
2019-01-05T03:07:33.877Z,-4.00
2019-01-05T03:08:33.857Z,-3.91
2019-01-05T03:09:33.867Z,-3.88
2019-01-05T03:10:33.867Z,-3.79
2019-01-05T03:11:33.868Z,-3.75
2019-01-05T03:12:33.872Z,-3.88
2019-01-05T03:13:33.880Z,-3.81
2019-01-05T03:14:33.886Z,-3.69
2019-01-05T03:15:33.883Z,-3.72
2019-01-05T03:16:33.888Z,-3.82
2019-01-05T03:17:33.888Z,-3.75
2019-01-05T03:18:33.893Z,-3.76
2019-01-05T03:19:33.899Z,-3.81
2019-01-05T03:20:33.903Z,-3.90
2019-01-05T03:21:33.916Z,-3.76
2019-01-05T03:22:33.914Z,-3.75
2019-01-05T03:23:33.913Z,-3.67
2019-01-05T03:24:33.915Z,-3.71
2019-01-05T03:25:33.918Z,-3.66
2019-01-05T03:26:33.924Z,-3.64
2019-01-05T03:27:33.924Z,-3.66
2019-01-05T03:28:33.930Z,-3.64
2019-01-05T03:29:33.930Z,-3.66
2019-01-05T03:30:33.937Z,-3.63
2019-01-05T03:31:33.941Z,-3.64
2019-01-05T03:32:33.950Z,-3.75
2019-01-05T03:33:33.946Z,-3.67
2019-01-05T03:34:33.958Z,-3.67
2019-01-05T03:35:33.955Z,-3.78
2019-01-05T03:36:33.957Z,-3.71
2019-01-05T03:37:33.962Z,-3.71
2019-01-05T03:38:33.964Z,-3.69
2019-01-05T03:39:33.976Z,-3.71
2019-01-05T03:40:33.971Z,-3.72
2019-01-05T03:41:33.976Z,-3.78
2019-01-05T03:42:33.975Z,-3.66
2019-01-05T03:43:33.983Z,-3.63
2019-01-05T03:44:33.988Z,-3.63
2019-01-05T03:45:33.986Z,-3.63
2019-01-05T03:46:33.991Z,-3.60
2019-01-05T03:47:33.994Z,-3.69
2019-01-05T03:48:33.998Z,-3.62
2019-01-05T03:49:34.009Z,-3.66
2019-01-05T03:50:34.008Z,-3.64
2019-01-05T03:51:34.015Z,-3.66
2019-01-05T03:52:34.015Z,-3.72
2019-01-05T03:53:34.020Z,-3.67
2019-01-05T03:54:34.028Z,-3.66
2019-01-05T03:55:34.033Z,-3.66
2019-01-05T03:56:34.032Z,-3.75
2019-01-05T03:57:34.037Z,-3.67
2019-01-05T03:58:34.039Z,-3.72
2019-01-05T03:59:34.040Z,-3.72
2019-01-05T04:00:34.043Z,-3.78
2019-01-05T04:01:34.049Z,-3.85
2019-01-05T04:02:34.051Z,-3.76
2019-01-05T04:03:34.054Z,-3.79
2019-01-05T04:04:34.059Z,-3.79
2019-01-05T04:05:34.064Z,-3.71
2019-01-05T04:06:34.065Z,-3.82
2019-01-05T04:07:34.073Z,-3.76
2019-01-05T04:08:34.074Z,-3.86
2019-01-05T04:09:34.073Z,-3.85
2019-01-05T04:10:34.080Z,-3.72
2019-01-05T04:11:34.086Z,-3.71
2019-01-05T04:12:34.089Z,-3.67
2019-01-05T04:13:34.089Z,-3.69
2019-01-05T04:14:34.100Z,-3.60
2019-01-05T04:15:34.098Z,-3.66
2019-01-05T04:16:34.097Z,-3.66
2019-01-05T04:17:34.101Z,-3.72
2019-01-05T04:18:34.104Z,-3.75
2019-01-05T04:19:34.111Z,-3.69
2019-01-05T04:20:34.114Z,-3.75
2019-01-05T04:21:34.115Z,-3.71
2019-01-05T04:22:34.126Z,-3.76
2019-01-05T04:23:34.125Z,-3.69
2019-01-05T04:24:34.127Z,-3.69
2019-01-05T04:25:34.133Z,-3.64
2019-01-05T04:26:34.138Z,-3.72
2019-01-05T04:27:34.141Z,-3.71
2019-01-05T04:28:34.143Z,-3.69
2019-01-05T04:29:34.147Z,-3.72
2019-01-05T04:30:34.151Z,-3.71
2019-01-05T04:31:34.156Z,-3.64
2019-01-05T04:32:34.158Z,-3.59
2019-01-05T04:33:34.159Z,-3.72
2019-01-05T04:34:34.164Z,-3.62
2019-01-05T04:35:34.169Z,-3.59
2019-01-05T04:36:34.171Z,-3.53
2019-01-05T04:37:34.175Z,-3.60
2019-01-05T04:38:34.177Z,-3.63
2019-01-05T04:39:34.182Z,-3.64
2019-01-05T04:40:34.189Z,-3.67
2019-01-05T04:41:34.191Z,-3.56
2019-01-05T04:42:34.194Z,-3.54
2019-01-05T04:43:34.196Z,-3.60
2019-01-05T04:44:34.203Z,-3.62
2019-01-05T04:45:34.204Z,-3.56
2019-01-05T04:46:34.207Z,-3.59
2019-01-05T04:47:34.214Z,-3.63
2019-01-05T04:48:34.213Z,-3.63
2019-01-05T04:49:34.218Z,-3.64
2019-01-05T04:50:34.220Z,-3.41
2019-01-05T04:51:34.229Z,-3.42
2019-01-05T04:52:34.232Z,-3.43
2019-01-05T04:53:34.230Z,-3.41
2019-01-05T04:54:34.238Z,-3.43
2019-01-05T04:55:34.237Z,-3.41
2019-01-05T04:56:34.244Z,-3.45
2019-01-05T04:57:34.244Z,-3.45
2019-01-05T04:58:34.251Z,-3.48
2019-01-05T04:59:34.254Z,-3.42
2019-01-05T05:00:34.260Z,-3.43
2019-01-05T05:01:34.259Z,-3.49
2019-01-05T05:02:34.268Z,-3.42
2019-01-05T05:03:34.267Z,-3.41
2019-01-05T05:04:34.271Z,-3.43
2019-01-05T05:05:34.276Z,-3.48
2019-01-05T05:06:34.279Z,-3.52
2019-01-05T05:07:34.279Z,-3.45
2019-01-05T05:08:34.286Z,-3.46
2019-01-05T05:09:34.289Z,-3.43
2019-01-05T05:10:34.292Z,-3.52
2019-01-05T05:11:34.297Z,-3.57
2019-01-05T05:12:34.299Z,-3.57
2019-01-05T05:13:34.302Z,-3.57
2019-01-05T05:14:34.305Z,-3.54
2019-01-05T05:15:34.314Z,-3.62
2019-01-05T05:16:34.315Z,-3.67
2019-01-05T05:17:34.319Z,-3.62
2019-01-05T05:18:34.326Z,-3.60
2019-01-05T05:19:34.325Z,-3.60
2019-01-05T05:20:34.329Z,-3.67
2019-01-05T05:21:34.331Z,-3.57
2019-01-05T05:22:35.851Z,-3.56
2019-01-05T05:23:34.341Z,-3.57
2019-01-05T05:24:34.344Z,-3.49
2019-01-05T05:25:34.346Z,-3.53
2019-01-05T05:26:34.351Z,-3.53
2019-01-05T05:27:34.355Z,-3.46
2019-01-05T05:28:34.356Z,-3.54
2019-01-05T05:29:34.360Z,-3.54
2019-01-05T05:30:35.546Z,-3.53
2019-01-05T05:31:34.367Z,-3.43
2019-01-05T05:32:34.379Z,-3.46
2019-01-05T05:33:34.375Z,-3.35
2019-01-05T05:34:34.378Z,-3.23
2019-01-05T05:35:34.381Z,-3.17
2019-01-05T05:36:34.387Z,-3.14
2019-01-05T05:37:34.389Z,-3.18
2019-01-05T05:38:34.396Z,-3.17
2019-01-05T05:39:34.397Z,-3.14
2019-01-05T05:40:34.400Z,-3.23
2019-01-05T05:41:34.402Z,-3.18
2019-01-05T05:42:34.408Z,-3.24
2019-01-05T05:43:34.481Z,-3.30
2019-01-05T05:44:34.415Z,-3.36
2019-01-05T05:45:34.420Z,-3.33
2019-01-05T05:46:34.469Z,-3.33
2019-01-05T05:47:34.502Z,-3.35
2019-01-05T05:48:34.471Z,-3.35
2019-01-05T05:49:34.496Z,-3.30
2019-01-05T05:50:34.513Z,-3.28
2019-01-05T05:51:34.496Z,-3.39
2019-01-05T05:52:34.527Z,-3.39
2019-01-05T05:53:34.535Z,-3.41
2019-01-05T05:54:34.523Z,-3.39
2019-01-05T05:55:34.520Z,-3.31
2019-01-05T05:56:34.495Z,-3.38
2019-01-05T05:57:34.514Z,-3.39
2019-01-05T05:58:34.507Z,-3.36
2019-01-05T05:59:34.532Z,-3.30
2019-01-05T06:00:34.539Z,-3.28
2019-01-05T06:01:34.544Z,-3.39
2019-01-05T06:02:34.535Z,-3.30
2019-01-05T06:03:34.557Z,-3.28
2019-01-05T06:04:34.546Z,-3.39
2019-01-05T06:05:34.559Z,-3.36
2019-01-05T06:06:34.498Z,-3.35
2019-01-05T06:07:34.501Z,-3.41
2019-01-05T06:08:34.508Z,-3.48
2019-01-05T06:09:34.510Z,-3.53
2019-01-05T06:10:34.512Z,-3.49
2019-01-05T06:11:34.519Z,-3.53
2019-01-05T06:12:34.520Z,-3.54
2019-01-05T06:13:34.525Z,-3.53
2019-01-05T06:14:34.531Z,-3.54
2019-01-05T06:15:34.534Z,-3.62
2019-01-05T06:16:34.534Z,-3.62
2019-01-05T06:17:34.537Z,-3.71
2019-01-05T06:18:34.542Z,-3.72
2019-01-05T06:19:34.546Z,-3.75
2019-01-05T06:20:34.552Z,-3.71
2019-01-05T06:21:34.556Z,-3.69
2019-01-05T06:22:34.557Z,-3.56
2019-01-05T06:23:34.565Z,-3.53
2019-01-05T06:24:34.565Z,-3.48
2019-01-05T06:25:34.567Z,-3.57
2019-01-05T06:26:34.571Z,-3.43
2019-01-05T06:27:34.577Z,-3.43
2019-01-05T06:28:34.580Z,-3.35
2019-01-05T06:29:34.586Z,-3.39
2019-01-05T06:30:34.586Z,-3.33
2019-01-05T06:31:34.591Z,-3.31
2019-01-05T06:32:34.593Z,-3.23
2019-01-05T06:33:34.597Z,-3.21
2019-01-05T06:34:34.607Z,-3.17
2019-01-05T06:35:34.603Z,-3.14
2019-01-05T06:36:34.609Z,-3.21
2019-01-05T06:37:34.613Z,-3.39
2019-01-05T06:38:34.617Z,-3.36
2019-01-05T06:39:34.620Z,-3.35
2019-01-05T06:40:34.627Z,-3.45
2019-01-05T06:41:34.625Z,-3.46
2019-01-05T06:42:34.634Z,-3.43
2019-01-05T06:43:34.643Z,-3.48
2019-01-05T06:44:34.638Z,-3.62
2019-01-05T06:45:34.641Z,-3.52
2019-01-05T06:46:34.645Z,-3.62
2019-01-05T06:47:34.649Z,-3.54
2019-01-05T06:48:34.655Z,-3.59
2019-01-05T06:49:34.656Z,-3.49
2019-01-05T06:50:34.660Z,-3.48
2019-01-05T06:51:34.668Z,-3.39
2019-01-05T06:52:34.669Z,-3.42
2019-01-05T06:53:34.673Z,-3.41
2019-01-05T06:54:34.676Z,-3.43
2019-01-05T06:55:34.680Z,-3.39
2019-01-05T06:56:34.682Z,-3.41
2019-01-05T06:57:34.686Z,-3.46
2019-01-05T06:58:34.689Z,-3.43
2019-01-05T06:59:34.692Z,-3.45
2019-01-05T07:00:34.699Z,-3.46
2019-01-05T07:01:34.701Z,-3.39
2019-01-05T07:02:34.703Z,-3.25
2019-01-05T07:03:34.710Z,-3.14
2019-01-05T07:04:34.712Z,-3.05
2019-01-05T07:05:34.715Z,-3.00
2019-01-05T07:06:34.724Z,-2.94
2019-01-05T07:07:34.723Z,-2.86
2019-01-05T07:08:34.726Z,-2.77
2019-01-05T07:09:34.730Z,-2.68
2019-01-05T07:10:34.736Z,-2.66
2019-01-05T07:11:34.737Z,-2.55
2019-01-05T07:12:34.742Z,-2.46
2019-01-05T07:13:34.747Z,-2.39
2019-01-05T07:14:34.752Z,-2.30
2019-01-05T07:15:34.755Z,-2.27
2019-01-05T07:16:34.756Z,-1.94
2019-01-05T07:17:34.759Z,-1.82
2019-01-05T07:18:34.767Z,-1.76
2019-01-05T07:19:34.768Z,-1.77
2019-01-05T07:20:34.772Z,-1.77
2019-01-05T07:21:34.779Z,-1.82
2019-01-05T07:22:34.780Z,-1.85
2019-01-05T07:23:34.784Z,-1.84
2019-01-05T07:24:34.789Z,-1.76
2019-01-05T07:25:34.792Z,-1.91
2019-01-05T07:26:34.798Z,-1.80
2019-01-05T07:27:34.805Z,-1.82
2019-01-05T07:28:34.806Z,-1.79
2019-01-05T07:29:34.810Z,-1.80
2019-01-05T07:30:34.814Z,-1.79
2019-01-05T07:31:34.817Z,-1.74
2019-01-05T07:32:34.823Z,-1.67
2019-01-05T07:33:34.824Z,-1.69
2019-01-05T07:34:34.829Z,-1.58
2019-01-05T07:35:34.834Z,-1.54
2019-01-05T07:36:34.838Z,-1.55
2019-01-05T07:37:34.844Z,-1.51
2019-01-05T07:38:34.848Z,-1.41
2019-01-05T07:39:34.856Z,-1.40
2019-01-05T07:40:34.856Z,-1.41
2019-01-05T07:41:34.859Z,-1.37
2019-01-05T07:42:34.863Z,-1.40
2019-01-05T07:43:34.867Z,-1.40
2019-01-05T07:44:34.874Z,-1.35
2019-01-05T07:45:34.875Z,-1.34
2019-01-05T07:46:34.881Z,-1.35
2019-01-05T07:47:34.885Z,-1.31
2019-01-05T07:48:34.890Z,-1.34
2019-01-05T07:49:34.894Z,-1.38
2019-01-05T07:50:34.898Z,-1.52
2019-01-05T07:51:34.936Z,-1.55
2019-01-05T07:52:34.908Z,-1.72
2019-01-05T07:53:34.911Z,-1.87
2019-01-05T07:54:34.916Z,-1.91
2019-01-05T07:55:34.923Z,-1.95
2019-01-05T07:56:34.924Z,-1.97
2019-01-05T07:57:34.929Z,-1.94
2019-01-05T07:58:34.934Z,-1.97
2019-01-05T07:59:34.939Z,-2.00
2019-01-05T08:00:34.943Z,-1.97
2019-01-05T08:01:34.948Z,-1.92
2019-01-05T08:02:34.951Z,-1.91
2019-01-05T08:03:34.956Z,-1.92
2019-01-05T08:04:34.959Z,-1.76
2019-01-05T08:05:34.965Z,-1.77
2019-01-05T08:06:34.971Z,-1.82
2019-01-05T08:07:34.973Z,-1.79
2019-01-05T08:08:34.979Z,-1.76
2019-01-05T08:09:34.986Z,-1.77
2019-01-05T08:10:35.014Z,-1.77
2019-01-05T08:11:35.067Z,-1.82
2019-01-05T08:12:34.996Z,-1.80
2019-01-05T08:13:35.004Z,-1.69
2019-01-05T08:14:35.047Z,-1.72
2019-01-05T08:15:35.058Z,-1.64
2019-01-05T08:16:35.038Z,-1.52
2019-01-05T08:17:35.018Z,-1.34
2019-01-05T08:18:35.024Z,-1.35
2019-01-05T08:19:35.027Z,-1.35
2019-01-05T08:20:35.032Z,-1.38
2019-01-05T08:21:35.097Z,-1.33
2019-01-05T08:22:35.038Z,-1.27
2019-01-05T08:23:35.045Z,-1.20
2019-01-05T08:24:35.048Z,-1.20
2019-01-05T08:25:35.051Z,-1.27
2019-01-05T08:26:35.057Z,-1.07
2019-01-05T08:27:35.059Z,-0.89
2019-01-05T08:28:35.065Z,-0.75
2019-01-05T08:29:35.069Z,-0.78
2019-01-05T08:30:35.074Z,-0.80
2019-01-05T08:31:35.080Z,-0.72
2019-01-05T08:32:35.084Z,-0.70
2019-01-05T08:33:35.095Z,-0.73
2019-01-05T08:34:35.091Z,-0.70
2019-01-05T08:35:35.095Z,-0.73
2019-01-05T08:36:35.134Z,-0.64
2019-01-05T08:37:35.104Z,-0.69
2019-01-05T08:38:35.110Z,-0.64
2019-01-05T08:39:35.117Z,-0.62
2019-01-05T08:40:35.121Z,-0.62
2019-01-05T08:41:35.124Z,-0.54
2019-01-05T08:42:35.129Z,-0.58
2019-01-05T08:43:35.134Z,-0.61
2019-01-05T08:44:35.142Z,-0.51
2019-01-05T08:45:35.144Z,-0.47
2019-01-05T08:46:35.149Z,-0.49
2019-01-05T08:47:35.154Z,-0.47
2019-01-05T08:48:35.158Z,-0.51
2019-01-05T08:49:35.163Z,-0.49
2019-01-05T08:50:35.172Z,-0.46
2019-01-05T08:51:35.175Z,-0.51
2019-01-05T08:52:35.180Z,-0.51
2019-01-05T08:53:35.231Z,-0.46
2019-01-05T08:54:35.190Z,-0.39
2019-01-05T08:55:35.194Z,-0.40
2019-01-05T08:56:35.204Z,-0.37
2019-01-05T08:57:35.215Z,-0.34
2019-01-05T08:58:35.218Z,-0.37
2019-01-05T08:59:35.222Z,-0.42
2019-01-05T09:00:35.221Z,-0.39
2019-01-05T09:01:35.228Z,-0.36
2019-01-05T09:02:35.254Z,-0.23
2019-01-05T09:03:35.244Z,-0.23
2019-01-05T09:04:35.244Z,-0.31
2019-01-05T09:05:35.251Z,-0.26
2019-01-05T09:06:35.259Z,-0.15
2019-01-05T09:07:35.263Z,-0.22
2019-01-05T09:08:35.296Z,-0.14
2019-01-05T09:09:35.270Z,-0.18
2019-01-05T09:10:35.276Z,-0.19
2019-01-05T09:11:35.285Z,-0.25
2019-01-05T09:12:35.293Z,-0.33
2019-01-05T09:13:35.294Z,-0.40
2019-01-05T09:14:35.299Z,-0.54
2019-01-05T09:15:35.304Z,-0.61
2019-01-05T09:16:35.311Z,-0.69
2019-01-05T09:17:35.317Z,-0.65
2019-01-05T09:18:35.321Z,-0.51
2019-01-05T09:19:35.326Z,-0.37
2019-01-05T09:20:35.331Z,-0.36
2019-01-05T09:21:35.340Z,-0.51
2019-01-05T09:22:35.345Z,-0.65
2019-01-05T09:23:35.349Z,-0.69
2019-01-05T09:24:35.356Z,-0.69
2019-01-05T09:25:35.360Z,-0.60
2019-01-05T09:26:35.366Z,-0.60
2019-01-05T09:27:35.373Z,-0.62
2019-01-05T09:28:35.378Z,-0.57
2019-01-05T09:29:35.385Z,-0.51
2019-01-05T09:30:35.389Z,-0.40
2019-01-05T09:31:35.392Z,-0.37
2019-01-05T09:32:35.399Z,-0.29
2019-01-05T09:33:35.409Z,-0.31
2019-01-05T09:34:35.409Z,-0.29
2019-01-05T09:35:35.417Z,-0.21
2019-01-05T09:36:35.418Z,-0.19
2019-01-05T09:37:36.454Z,-0.14
2019-01-05T09:38:35.431Z,-0.11
2019-01-05T09:39:35.438Z,-0.07
2019-01-05T09:40:35.441Z,-0.10
2019-01-05T09:41:35.447Z,0.03
2019-01-05T09:42:35.453Z,-0.18
2019-01-05T09:43:35.459Z,-0.23
2019-01-05T09:44:35.466Z,-0.31
2019-01-05T09:45:35.468Z,-0.29
2019-01-05T09:46:35.476Z,-0.31
2019-01-05T09:47:35.481Z,-0.21
2019-01-05T09:48:35.488Z,-0.15
2019-01-05T09:49:35.493Z,-0.14
2019-01-05T09:50:35.496Z,-0.16
2019-01-05T09:51:35.506Z,-0.25
2019-01-05T09:52:35.508Z,-0.37
2019-01-05T09:53:35.511Z,-0.40
2019-01-05T09:54:35.520Z,-0.43
2019-01-05T09:55:35.523Z,-0.39
2019-01-05T09:56:35.531Z,-0.51
2019-01-05T09:57:35.534Z,-0.51
2019-01-05T09:58:35.538Z,-0.57
2019-01-05T09:59:35.546Z,-0.52
2019-01-05T10:00:35.550Z,-0.55
2019-01-05T10:01:35.558Z,-0.79
2019-01-05T10:02:35.560Z,-0.83
2019-01-05T10:03:35.566Z,-1.07
2019-01-05T10:04:35.573Z,-1.09
2019-01-05T10:05:35.577Z,-1.02
2019-01-05T10:06:35.635Z,-0.91
2019-01-05T10:07:35.588Z,-0.89
2019-01-05T10:08:35.594Z,-0.82
2019-01-05T10:09:35.601Z,-0.92
2019-01-05T10:10:35.605Z,-0.91
2019-01-05T10:11:35.610Z,-0.89
2019-01-05T10:12:35.615Z,-1.09
2019-01-05T10:13:35.619Z,-1.05
2019-01-05T10:14:35.626Z,-1.12
2019-01-05T10:15:35.632Z,-1.04
2019-01-05T10:16:35.637Z,-1.16
2019-01-05T10:17:35.643Z,-1.01
2019-01-05T10:18:35.649Z,-1.02
2019-01-05T10:19:35.652Z,-1.07
2019-01-05T10:20:35.660Z,-1.01
2019-01-05T10:21:35.663Z,-0.92
2019-01-05T10:22:35.672Z,-0.86
2019-01-05T10:23:35.673Z,-0.73
2019-01-05T10:24:35.704Z,-0.79
2019-01-05T10:25:35.683Z,-0.75
2019-01-05T10:26:35.698Z,-0.72
2019-01-05T10:27:35.693Z,-0.69
2019-01-05T10:28:35.700Z,-0.62
2019-01-05T10:29:35.705Z,-0.52
2019-01-05T10:30:35.710Z,-0.51
2019-01-05T10:31:35.715Z,-0.47
2019-01-05T10:32:35.720Z,-0.46
2019-01-05T10:33:35.725Z,-0.46
2019-01-05T10:34:35.732Z,-0.62
2019-01-05T10:35:35.738Z,-0.75
2019-01-05T10:36:35.742Z,-0.78
2019-01-05T10:37:35.747Z,-0.82
2019-01-05T10:38:35.753Z,-0.91
2019-01-05T10:39:35.761Z,-0.79
2019-01-05T10:40:35.763Z,-0.91
2019-01-05T10:41:35.772Z,-0.86
2019-01-05T10:42:35.776Z,-0.85
2019-01-05T10:43:35.784Z,-0.78
2019-01-05T10:44:35.784Z,-0.76
2019-01-05T10:45:35.789Z,-0.78
2019-01-05T10:46:35.805Z,-0.72
2019-01-05T10:47:35.803Z,-0.76
2019-01-05T10:48:35.809Z,-0.95
2019-01-05T10:49:35.811Z,-0.83
2019-01-05T10:50:35.819Z,-0.86
2019-01-05T10:51:35.825Z,-0.79
2019-01-05T10:52:35.828Z,-0.89
2019-01-05T10:53:35.832Z,-0.72
2019-01-05T10:54:35.840Z,-0.78
2019-01-05T10:55:35.846Z,-0.67
2019-01-05T10:56:35.856Z,-0.69
2019-01-05T10:57:35.855Z,-0.65
2019-01-05T10:58:35.866Z,-0.62
2019-01-05T10:59:35.870Z,-0.60
2019-01-05T11:00:35.879Z,-0.61
2019-01-05T11:01:35.878Z,-0.51
2019-01-05T11:02:35.883Z,-0.51
2019-01-05T11:03:35.894Z,-0.43
2019-01-05T11:04:35.895Z,-0.46
2019-01-05T11:05:35.917Z,-0.49
2019-01-05T11:06:35.908Z,-0.47
2019-01-05T11:07:35.914Z,-0.40
2019-01-05T11:08:35.916Z,-0.36
2019-01-05T11:09:35.923Z,-0.47
2019-01-05T11:10:35.929Z,-0.46
2019-01-05T11:11:35.936Z,-0.46
2019-01-05T11:12:35.938Z,-0.54
2019-01-05T11:13:35.943Z,-0.60
2019-01-05T11:14:35.951Z,-0.55
2019-01-05T11:15:35.963Z,-0.43
2019-01-05T11:16:35.962Z,-0.47
2019-01-05T11:17:35.966Z,-0.42
2019-01-05T11:18:35.972Z,-0.37
2019-01-05T11:19:35.978Z,-0.34
2019-01-05T11:20:36.036Z,-0.31
2019-01-05T11:21:35.994Z,-0.11
2019-01-05T11:22:36.036Z,-0.07
2019-01-05T11:23:35.999Z,-0.05
2019-01-05T11:24:36.007Z,0.02
2019-01-05T11:25:36.012Z,0.04
2019-01-05T11:26:36.021Z,0.15
2019-01-05T11:27:36.030Z,0.15
2019-01-05T11:28:36.035Z,0.29
2019-01-05T11:29:36.033Z,0.36
2019-01-05T11:30:36.044Z,0.38
2019-01-05T11:31:36.044Z,0.31
2019-01-05T11:32:36.061Z,0.44
2019-01-05T11:33:36.054Z,0.41
2019-01-05T11:34:36.061Z,0.47
2019-01-05T11:35:36.067Z,0.49
2019-01-05T11:36:36.082Z,0.53
2019-01-05T11:37:36.081Z,0.55
2019-01-05T11:38:36.089Z,0.47
2019-01-05T11:39:36.099Z,0.46
2019-01-05T11:40:36.093Z,0.32
2019-01-05T11:41:36.099Z,0.32
2019-01-05T11:42:36.105Z,0.28
2019-01-05T11:43:36.110Z,0.11
2019-01-05T11:44:36.118Z,0.02
2019-01-05T11:45:36.131Z,0.03
2019-01-05T11:46:36.130Z,0.10
2019-01-05T11:47:36.133Z,0.07
2019-01-05T11:48:36.139Z,0.15
2019-01-05T11:49:36.153Z,0.21
2019-01-05T11:50:36.154Z,0.26
2019-01-05T11:51:36.160Z,0.24
2019-01-05T11:52:36.165Z,0.17
2019-01-05T11:53:36.167Z,-0.01
2019-01-05T11:54:36.174Z,-0.08
2019-01-05T11:55:36.178Z,-0.21
2019-01-05T11:56:36.182Z,-0.26
2019-01-05T11:57:36.189Z,-0.18
2019-01-05T11:58:36.199Z,-0.23
2019-01-05T11:59:36.201Z,-0.26
2019-01-05T12:00:36.210Z,-0.25
2019-01-05T12:01:36.211Z,-0.15
2019-01-05T12:02:36.219Z,-0.16
2019-01-05T12:03:36.230Z,-0.08
2019-01-05T12:04:36.239Z,0.04
2019-01-05T12:05:36.234Z,0.02
2019-01-05T12:06:36.240Z,-0.05
2019-01-05T12:07:36.245Z,0.03
2019-01-05T12:08:36.260Z,0.08
2019-01-05T12:09:36.257Z,0.14
2019-01-05T12:10:36.275Z,0.23
2019-01-05T12:11:36.268Z,0.26
2019-01-05T12:12:36.274Z,0.31
2019-01-05T12:13:36.279Z,0.32
2019-01-05T12:14:36.286Z,0.31
2019-01-05T12:15:36.292Z,0.33
2019-01-05T12:16:40.790Z,0.36
2019-01-05T12:17:36.300Z,0.26
2019-01-05T12:18:36.307Z,0.31
2019-01-05T12:19:36.312Z,0.35
2019-01-05T12:20:36.320Z,0.33
2019-01-05T12:21:36.326Z,0.38
2019-01-05T12:22:36.332Z,0.33
2019-01-05T12:23:36.342Z,0.35
2019-01-05T12:24:36.345Z,0.39
2019-01-05T12:25:36.347Z,0.50
2019-01-05T12:26:36.359Z,0.44
2019-01-05T12:27:36.362Z,0.53
2019-01-05T12:28:36.368Z,0.57
2019-01-05T12:29:36.371Z,0.60
2019-01-05T12:30:36.378Z,0.61
2019-01-05T12:31:36.388Z,0.61
2019-01-05T12:32:36.391Z,0.58
2019-01-05T12:33:36.394Z,0.66
2019-01-05T12:34:36.403Z,0.68
2019-01-05T12:35:36.408Z,0.69
2019-01-05T12:36:36.425Z,0.57
2019-01-05T12:37:36.426Z,0.60
2019-01-05T12:38:36.429Z,0.60
2019-01-05T12:39:36.446Z,0.72
2019-01-05T12:40:36.441Z,0.70
2019-01-05T12:41:36.447Z,0.80
2019-01-05T12:42:36.450Z,0.83
2019-01-05T12:43:36.457Z,0.83
2019-01-05T12:44:36.465Z,0.87
2019-01-05T12:45:36.467Z,0.79
2019-01-05T12:46:36.474Z,0.98
2019-01-05T12:47:36.480Z,0.96
2019-01-05T12:48:36.488Z,0.72
2019-01-05T12:49:36.492Z,0.51
2019-01-05T12:50:36.499Z,0.53
2019-01-05T12:51:36.507Z,0.61
2019-01-05T12:52:36.512Z,0.66
2019-01-05T12:53:36.520Z,0.70
2019-01-05T12:54:36.526Z,0.66
2019-01-05T12:55:36.536Z,0.75